Terminal Aerodrome Forecast
Issued by NWS Hastings, NE

Home | Current Version | Previous Version | Text Only | Print | Product List | Glossary On
Versions: 1 2 3 4 5 6 7 8 9 10 11 12 13 14 15
939
FTUS45 KGID 181741
TAFEAR
TAF
KEAR 181741Z 1818/1918 20010KT P6SM SCT250
     FM190400 19009KT 4SM BR BKN035
     FM190600 19009KT 1SM BR BKN008
     FM191000 17005KT 1 1/2SM BR BKN003
     FM191600 17005KT 5SM BR BKN006
      AMD LTD TO CLD VIS AND WIND=

USA.gov is the U.S. government's official web portal to all federal, state and local government web resources and services.